Time;durP1;ratioP1;P1;durP2;ratioP2;P2;SDS_P1;SDS_P2;PMS_P1;PMS_P2;Temp;Humidity;BMP_temperature;BMP_pressure;BME280_temperature;BME280_humidity;BME280_pressure;Samples;Min_cycle;Max_cycle;Signal;HPM_P1;HPM_P2
2022/12/21 00:00:49;;;;;;;26.73;15.03;;;6.60;99.90;;;;;;5043460;28;20212;-72
2022/12/21 00:03:15;;;;;;;28.10;15.30;;;6.70;99.90;;;;;;5042309;28;20575;-70
2022/12/21 00:05:41;;;;;;;26.70;14.80;;;6.70;99.90;;;;;;5046412;28;20186;-72
2022/12/21 00:08:06;;;;;;;28.93;16.27;;;6.60;99.90;;;;;;5029930;28;20261;-70
2022/12/21 00:10:32;;;;;;;25.77;15.27;;;6.60;99.90;;;;;;5038149;28;20227;-72
2022/12/21 00:12:57;;;;;;;24.47;14.63;;;6.60;99.90;;;;;;5027428;28;20203;-71
2022/12/21 00:15:23;;;;;;;26.87;15.13;;;6.60;99.90;;;;;;5043501;28;20189;-74
2022/12/21 00:17:49;;;;;;;26.53;15.20;;;6.60;99.90;;;;;;5028769;28;20234;-75
2022/12/21 00:20:14;;;;;;;28.63;15.30;;;6.60;99.90;;;;;;5037740;28;20235;-74
2022/12/21 00:22:40;;;;;;;27.30;15.57;;;6.50;99.90;;;;;;5031956;28;20241;-72
2022/12/21 00:25:06;;;;;;;25.50;14.70;;;6.50;99.90;;;;;;5047922;28;20685;-70
2022/12/21 00:27:31;;;;;;;28.30;14.27;;;6.50;99.90;;;;;;5043747;28;21336;-72
2022/12/21 00:29:57;;;;;;;30.93;15.93;;;6.50;99.90;;;;;;5045079;28;20176;-74
2022/12/21 00:32:23;;;;;;;29.10;14.27;;;6.50;99.90;;;;;;5047439;28;20201;-69
2022/12/21 00:34:48;;;;;;;28.43;14.77;;;6.50;99.90;;;;;;5018156;28;20247;-69
2022/12/21 00:37:14;;;;;;;27.63;15.77;;;6.50;99.90;;;;;;5044833;28;20212;-67
2022/12/21 00:39:40;;;;;;;29.83;16.23;;;6.50;99.90;;;;;;5032647;28;20204;-71
2022/12/21 00:42:05;;;;;;;31.20;16.03;;;6.50;99.90;;;;;;5030224;28;20199;-69
2022/12/21 00:44:31;;;;;;;34.27;16.63;;;6.50;99.90;;;;;;5039230;28;20207;-72
2022/12/21 00:46:56;;;;;;;31.13;16.20;;;6.50;99.90;;;;;;5045205;28;20199;-71
2022/12/21 00:49:22;;;;;;;28.63;16.37;;;6.50;99.90;;;;;;5042848;28;20204;-72
2022/12/21 00:51:48;;;;;;;32.60;16.23;;;6.50;99.90;;;;;;5031505;28;20210;-73
2022/12/21 00:54:14;;;;;;;29.10;15.77;;;6.50;99.90;;;;;;5043392;28;20196;-72
2022/12/21 00:56:39;;;;;;;27.80;15.57;;;6.40;99.90;;;;;;5046417;28;20215;-72
2022/12/21 00:59:05;;;;;;;28.47;16.07;;;6.50;99.90;;;;;;5046167;28;20257;-72
2022/12/21 01:01:33;;;;;;;28.13;16.13;;;6.50;99.90;;;;;;5039890;28;20631;-72
2022/12/21 01:03:59;;;;;;;28.33;16.57;;;6.50;99.90;;;;;;5042353;28;20325;-72
2022/12/21 01:06:31;;;;;;;30.70;16.57;;;6.40;99.90;;;;;;5045235;28;20210;-70
2022/12/21 01:08:57;;;;;;;33.47;16.97;;;6.40;99.90;;;;;;5043740;28;20558;-72
2022/12/21 01:11:24;;;;;;;28.40;15.47;;;6.40;99.90;;;;;;5045369;28;20231;-72
2022/12/21 01:13:51;;;;;;;31.90;17.30;;;6.40;99.90;;;;;;5028567;28;20208;-72
2022/12/21 01:16:22;;;;;;;30.13;16.73;;;6.40;99.90;;;;;;5042068;28;20208;-72
2022/12/21 01:18:49;;;;;;;33.33;16.57;;;6.40;99.90;;;;;;5047348;28;20235;-74
2022/12/21 01:21:23;;;;;;;31.20;16.57;;;6.40;99.90;;;;;;5044705;28;20195;-73
2022/12/21 01:23:49;;;;;;;33.93;16.80;;;6.40;99.90;;;;;;5045974;28;20164;-72
2022/12/21 01:26:16;;;;;;;32.97;17.67;;;6.40;99.90;;;;;;5044519;28;20208;-72
2022/12/21 01:28:42;;;;;;;32.00;16.13;;;6.40;99.90;;;;;;5042924;28;20598;-73
2022/12/21 01:31:07;;;;;;;32.53;15.50;;;6.40;99.90;;;;;;5029969;28;20215;-72
2022/12/21 01:33:33;;;;;;;35.30;18.90;;;6.40;99.90;;;;;;5045232;28;20238;-72
2022/12/21 01:36:07;;;;;;;30.33;17.33;;;6.30;99.90;;;;;;5033928;28;20203;-72
2022/12/21 01:38:33;;;;;;;32.60;17.73;;;6.30;99.90;;;;;;5047384;28;20289;-71
2022/12/21 01:40:59;;;;;;;32.07;17.43;;;6.30;99.90;;;;;;5047450;28;20265;-71
2022/12/21 01:43:44;;;;;;;31.37;16.37;;;6.30;99.90;;;;;;5047205;28;20207;-73
2022/12/21 01:46:44;;;;;;;31.07;17.73;;;6.30;99.90;;;;;;5050727;28;20234;-72
2022/12/21 01:49:10;;;;;;;33.83;16.67;;;6.30;99.90;;;;;;5004475;28;20212;-71
2022/12/21 01:51:37;;;;;;;31.63;17.17;;;6.30;99.90;;;;;;5049949;28;20261;-73
2022/12/21 01:54:17;;;;;;;34.27;18.33;;;6.20;99.90;;;;;;5033819;28;20195;-73
2022/12/21 01:56:46;;;;;;;32.00;17.30;;;6.30;99.90;;;;;;5044995;28;20249;-71
2022/12/21 01:59:41;;;;;;;33.07;17.23;;;6.20;99.90;;;;;;5033874;28;20211;-72
2022/12/21 02:02:11;;;;;;;33.73;17.70;;;6.30;99.90;;;;;;5027189;28;20434;-72
2022/12/21 02:04:38;;;;;;;34.27;18.90;;;6.20;99.90;;;;;;5029139;28;20706;-72
2022/12/21 02:07:03;;;;;;;33.77;18.00;;;6.20;99.90;;;;;;5049982;28;20211;-74
2022/12/21 02:09:33;;;;;;;38.77;19.07;;;6.30;99.90;;;;;;5045267;28;20226;-73
2022/12/21 02:12:02;;;;;;;34.03;18.40;;;6.20;99.90;;;;;;5049476;28;20171;-70
2022/12/21 02:14:31;;;;;;;35.13;18.43;;;6.20;99.90;;;;;;5048913;28;20215;-73
2022/12/21 02:17:48;;;;;;;33.70;17.63;;;6.20;99.90;;;;;;5033158;28;20230;-74
2022/12/21 02:20:52;;;;;;;34.30;18.27;;;6.20;99.90;;;;;;5046579;28;20279;-75
2022/12/21 02:23:43;;;;;;;40.53;20.07;;;6.10;99.90;;;;;;5015614;28;20291;-75
2022/12/21 02:26:18;;;;;;;38.73;18.93;;;6.20;99.90;;;;;;5044282;28;20227;-76
2022/12/21 02:29:10;;;;;;;36.97;18.50;;;6.20;99.90;;;;;;5048229;28;20654;-76
2022/12/21 02:31:43;;;;;;;36.70;19.27;;;6.30;99.90;;;;;;5032012;28;20196;-73
2022/12/21 02:34:18;;;;;;;32.90;18.27;;;6.30;99.90;;;;;;5048020;28;20223;-73
2022/12/21 02:36:50;;;;;;;35.43;18.80;;;6.20;99.90;;;;;;5021624;28;20337;-74
2022/12/21 02:39:15;;;;;;;36.33;18.87;;;6.20;99.90;;;;;;5048296;28;20231;-72
2022/12/21 02:42:00;;;;;;;33.43;18.53;;;6.10;99.90;;;;;;5034855;28;20208;-74
2022/12/21 02:44:50;;;;;;;35.50;18.50;;;6.10;99.90;;;;;;5047382;28;20199;-75
2022/12/21 02:47:23;;;;;;;36.93;19.00;;;6.10;99.90;;;;;;5047113;28;20207;-72
2022/12/21 02:50:12;;;;;;;35.67;18.67;;;6.10;99.90;;;;;;5045892;28;20286;-74
2022/12/21 02:52:46;;;;;;;35.37;17.27;;;6.10;99.90;;;;;;5049766;28;20210;-75
2022/12/21 02:55:13;;;;;;;39.27;18.67;;;6.10;99.90;;;;;;5045592;28;20214;-73
2022/12/21 02:57:42;;;;;;;37.97;18.37;;;6.10;99.90;;;;;;5029971;28;20219;-74
2022/12/21 03:00:11;;;;;;;36.23;18.97;;;6.10;99.90;;;;;;5031210;28;20227;-73
2022/12/21 03:06:29;;;;;;;33.87;18.10;;;6.00;99.90;;;;;;4969504;28;20756;-74
2022/12/21 03:09:13;;;;;;;35.77;18.27;;;6.10;99.90;;;;;;5024372;28;20238;-73
2022/12/21 03:12:06;;;;;;;37.10;18.83;;;6.10;99.90;;;;;;5045220;28;20273;-73
2022/12/21 03:14:43;;;;;;;40.23;19.37;;;6.10;99.90;;;;;;5047979;28;20204;-73
2022/12/21 03:17:36;;;;;;;36.70;19.37;;;6.00;99.90;;;;;;5044072;28;20219;-74
2022/12/21 03:20:22;;;;;;;35.93;19.67;;;6.10;99.90;;;;;;5042444;28;20696;-73
2022/12/21 03:22:57;;;;;;;34.03;18.70;;;6.00;99.90;;;;;;5037347;28;20564;-73
2022/12/21 03:25:29;;;;;;;36.17;18.90;;;6.00;99.90;;;;;;5043033;28;20211;-73
2022/12/21 03:28:01;;;;;;;38.80;19.97;;;6.00;99.90;;;;;;5047159;28;20948;-74
2022/12/21 03:30:32;;;;;;;40.10;20.17;;;6.10;99.90;;;;;;5042157;28;20226;-73
2022/12/21 03:33:02;;;;;;;34.73;19.40;;;6.00;99.90;;;;;;5045630;28;20171;-73
2022/12/21 03:35:42;;;;;;;35.50;19.27;;;6.10;99.90;;;;;;5044412;28;20922;-73
2022/12/21 03:38:15;;;;;;;37.90;20.10;;;6.00;99.90;;;;;;5046636;28;20230;-74
2022/12/21 03:40:44;;;;;;;40.93;20.43;;;6.00;99.90;;;;;;5029745;28;20227;-73
2022/12/21 03:43:19;;;;;;;39.70;20.83;;;6.00;99.90;;;;;;5029874;28;20215;-72
2022/12/21 03:45:55;;;;;;;37.87;19.17;;;6.10;99.90;;;;;;5031903;28;20217;-74
2022/12/21 03:48:31;;;;;;;40.63;19.97;;;6.00;99.90;;;;;;5037593;28;20176;-73
2022/12/21 03:51:03;;;;;;;35.80;19.70;;;6.00;99.90;;;;;;5041768;28;20795;-74
2022/12/21 03:53:41;;;;;;;41.37;21.33;;;6.00;99.90;;;;;;5049136;28;20214;-75
2022/12/21 03:56:10;;;;;;;41.70;20.63;;;6.00;99.90;;;;;;5044878;28;20223;-73
2022/12/21 03:58:36;;;;;;;41.87;19.90;;;6.00;99.90;;;;;;5046627;28;20582;-74
2022/12/21 04:01:20;;;;;;;41.90;19.73;;;6.00;99.90;;;;;;5022589;28;20614;-73
2022/12/21 04:03:53;;;;;;;38.50;20.97;;;6.00;99.90;;;;;;5026912;28;20213;-73
2022/12/21 04:06:22;;;;;;;40.57;20.03;;;6.00;99.90;;;;;;5046016;28;20211;-74
2022/12/21 04:08:48;;;;;;;38.30;19.27;;;6.00;99.90;;;;;;5029538;28;20575;-73
2022/12/21 04:13:59;;;;;;;37.60;19.10;;;6.00;99.90;;;;;;5044082;28;20709;-73
2022/12/21 04:16:26;;;;;;;40.13;20.83;;;6.00;99.90;;;;;;5020521;28;20210;-74
2022/12/21 04:21:53;;;;;;;37.50;18.37;;;6.00;99.90;;;;;;4949375;29;20229;-74
2022/12/21 04:29:46;;;;;;;40.53;20.07;;;6.00;99.90;;;;;;5043354;28;20289;-73
2022/12/21 04:32:12;;;;;;;39.07;20.27;;;6.00;99.90;;;;;;5039970;28;20220;-73
2022/12/21 04:34:37;;;;;;;42.27;20.70;;;6.00;99.90;;;;;;5048768;28;20211;-74
2022/12/21 04:39:47;;;;;;;39.37;20.87;;;6.00;99.90;;;;;;5043762;28;20242;-73
2022/12/21 04:42:13;;;;;;;41.00;21.30;;;6.00;99.90;;;;;;5045805;28;20663;-73
2022/12/21 04:44:38;;;;;;;38.27;20.30;;;6.10;99.90;;;;;;5046864;28;20188;-73
2022/12/21 04:47:04;;;;;;;40.37;20.83;;;6.00;99.90;;;;;;5043343;28;20598;-72
2022/12/21 04:49:29;;;;;;;45.17;21.57;;;6.00;99.90;;;;;;5043818;28;20243;-73
2022/12/21 04:51:55;;;;;;;38.40;20.30;;;6.00;99.90;;;;;;5044141;28;20222;-74
2022/12/21 04:54:21;;;;;;;41.93;20.93;;;6.00;99.90;;;;;;5049460;28;20251;-72
2022/12/21 04:56:46;;;;;;;39.50;20.37;;;6.00;99.90;;;;;;5024745;28;20207;-72
2022/12/21 04:59:12;;;;;;;43.80;22.23;;;6.00;99.90;;;;;;5043071;28;20245;-71
2022/12/21 05:01:38;;;;;;;44.60;21.63;;;6.00;99.90;;;;;;5029683;28;20219;-72
2022/12/21 05:04:05;;;;;;;39.20;20.97;;;6.00;99.90;;;;;;5043323;28;20706;-71
2022/12/21 05:06:31;;;;;;;40.70;20.90;;;6.10;99.90;;;;;;5027200;28;20239;-71
2022/12/21 05:08:57;;;;;;;37.50;20.33;;;6.10;99.90;;;;;;5048207;28;20631;-72
2022/12/21 05:11:23;;;;;;;40.40;20.63;;;6.10;99.90;;;;;;5040677;28;20591;-71
2022/12/21 05:13:50;;;;;;;46.30;21.73;;;6.00;99.90;;;;;;5046538;28;20920;-72
2022/12/21 05:16:18;;;;;;;38.97;21.23;;;6.00;99.90;;;;;;5020015;28;20329;-71
2022/12/21 05:18:44;;;;;;;44.30;22.20;;;6.10;99.90;;;;;;5044077;28;20215;-71
2022/12/21 05:21:10;;;;;;;39.10;21.83;;;6.10;99.90;;;;;;5022295;28;20605;-72
2022/12/21 05:23:37;;;;;;;38.70;20.97;;;6.10;99.90;;;;;;5042850;28;20171;-72
2022/12/21 05:26:04;;;;;;;41.07;21.53;;;6.10;99.90;;;;;;5042947;28;20646;-72
2022/12/21 05:28:30;;;;;;;47.27;22.97;;;6.10;99.90;;;;;;5048083;28;20641;-71
2022/12/21 05:30:56;;;;;;;47.33;22.67;;;6.10;99.90;;;;;;5022883;28;20236;-71
2022/12/21 05:33:22;;;;;;;41.33;22.67;;;6.10;99.90;;;;;;5044190;28;20184;-73
2022/12/21 05:35:48;;;;;;;40.00;21.63;;;6.20;99.90;;;;;;5045067;28;20250;-71
2022/12/21 05:38:13;;;;;;;45.43;22.20;;;6.10;99.90;;;;;;5040208;28;20770;-71
2022/12/21 05:40:39;;;;;;;42.13;21.37;;;6.20;99.90;;;;;;5045591;28;20284;-72
2022/12/21 05:43:05;;;;;;;45.77;23.37;;;6.20;99.90;;;;;;5046815;28;20320;-72
2022/12/21 05:45:31;;;;;;;42.93;23.43;;;6.20;99.90;;;;;;5045892;28;20631;-73
2022/12/21 05:47:57;;;;;;;40.27;21.20;;;6.20;99.90;;;;;;5046443;28;20237;-72
2022/12/21 05:50:24;;;;;;;41.27;22.50;;;6.20;99.90;;;;;;5023680;28;20212;-71
2022/12/21 05:52:49;;;;;;;40.33;20.97;;;6.20;99.90;;;;;;5021130;28;20227;-71
2022/12/21 05:55:15;;;;;;;44.80;22.20;;;6.20;99.90;;;;;;5043098;28;20290;-72
2022/12/21 05:57:41;;;;;;;44.07;23.37;;;6.20;99.90;;;;;;5040104;28;20675;-71
2022/12/21 06:00:07;;;;;;;42.37;21.83;;;6.30;99.90;;;;;;5027724;28;20705;-72
2022/12/21 06:02:33;;;;;;;41.00;22.23;;;6.30;99.90;;;;;;5048658;28;20682;-73
2022/12/21 06:04:59;;;;;;;40.67;22.37;;;6.30;99.90;;;;;;5041937;28;20210;-72
2022/12/21 06:07:24;;;;;;;40.37;22.53;;;6.30;99.90;;;;;;5027302;28;20218;-71
2022/12/21 06:09:50;;;;;;;45.57;23.60;;;6.30;99.90;;;;;;5048236;28;20330;-73
2022/12/21 06:12:15;;;;;;;40.33;23.13;;;6.40;99.90;;;;;;5040923;28;20181;-73
2022/12/21 06:14:41;;;;;;;45.57;23.80;;;6.40;99.90;;;;;;5047074;28;20187;-74
2022/12/21 06:17:06;;;;;;;40.47;22.80;;;6.40;99.90;;;;;;5029095;28;20258;-73
2022/12/21 06:19:32;;;;;;;43.87;23.33;;;6.40;99.90;;;;;;5044925;28;20214;-72
2022/12/21 06:21:57;;;;;;;49.63;24.53;;;6.40;99.90;;;;;;5049439;28;20222;-72
2022/12/21 06:24:23;;;;;;;44.70;23.03;;;6.40;99.90;;;;;;5045777;28;20204;-73
2022/12/21 06:26:49;;;;;;;45.17;23.13;;;6.40;99.90;;;;;;5033684;28;20231;-73
2022/12/21 06:29:15;;;;;;;42.83;22.33;;;6.50;99.90;;;;;;5048003;28;20200;-72
2022/12/21 06:31:41;;;;;;;48.57;23.67;;;6.50;99.90;;;;;;5046273;28;20659;-71
2022/12/21 06:34:06;;;;;;;46.97;23.20;;;6.50;99.90;;;;;;5048185;28;20277;-73
2022/12/21 06:36:32;;;;;;;45.57;23.23;;;6.50;99.90;;;;;;5051350;28;20223;-74
2022/12/21 06:38:57;;;;;;;42.13;22.90;;;6.50;99.90;;;;;;5033040;28;20602;-71
2022/12/21 06:41:23;;;;;;;48.67;24.47;;;6.50;99.90;;;;;;5076294;22;20387;-71
2022/12/21 06:43:50;;;;;;;43.40;23.43;;;6.50;99.90;;;;;;5067370;28;20203;-71
2022/12/21 06:46:17;;;;;;;48.97;24.40;;;6.50;99.90;;;;;;5072161;28;20722;-71
2022/12/21 06:48:43;;;;;;;45.60;24.10;;;6.50;99.90;;;;;;5069850;28;20203;-72
2022/12/21 06:51:18;;;;;;;45.80;24.10;;;6.50;99.90;;;;;;5064053;28;20242;-73
2022/12/21 06:53:45;;;;;;;48.57;26.40;;;6.50;99.90;;;;;;5045157;28;20222;-72
2022/12/21 06:56:16;;;;;;;44.97;23.93;;;6.60;99.90;;;;;;5042488;28;20707;-71
2022/12/21 06:58:42;;;;;;;45.97;25.60;;;6.60;99.90;;;;;;5044671;28;20260;-71
2022/12/21 07:01:10;;;;;;;44.07;24.93;;;6.50;99.90;;;;;;5054132;28;20314;-72
2022/12/21 07:03:36;;;;;;;51.13;26.07;;;6.60;99.90;;;;;;5042721;28;20852;-72
2022/12/21 07:06:02;;;;;;;49.13;25.07;;;6.50;99.90;;;;;;5040561;28;20279;-68
2022/12/21 07:08:29;;;;;;;48.77;24.77;;;6.60;99.90;;;;;;5045800;28;20225;-72
2022/12/21 07:11:17;;;;;;;51.47;25.63;;;6.60;99.90;;;;;;5038729;28;20219;-72
2022/12/21 07:13:45;;;;;;;47.30;25.53;;;6.60;99.90;;;;;;5041570;28;20203;-72
2022/12/21 07:16:11;;;;;;;46.40;25.30;;;6.60;99.90;;;;;;5057955;28;20228;-72
2022/12/21 07:18:38;;;;;;;51.60;25.67;;;6.60;99.90;;;;;;5040798;28;20635;-72
2022/12/21 07:21:06;;;;;;;49.27;25.57;;;6.70;99.90;;;;;;5051347;28;20695;-70
2022/12/21 07:23:34;;;;;;;45.23;24.63;;;6.70;99.90;;;;;;5043153;28;20755;-70
2022/12/21 07:26:00;;;;;;;52.20;25.87;;;6.70;99.90;;;;;;5041101;28;20214;-70
2022/12/21 07:28:26;;;;;;;49.63;24.37;;;6.70;99.90;;;;;;5045524;28;20290;-70
2022/12/21 07:31:01;;;;;;;46.27;25.40;;;6.70;99.90;;;;;;5038821;28;20721;-73
2022/12/21 07:33:27;;;;;;;48.47;26.03;;;6.70;99.90;;;;;;5044161;28;20183;-70
2022/12/21 07:35:58;;;;;;;47.47;25.13;;;6.70;99.90;;;;;;5040879;28;20186;-70
2022/12/21 07:38:24;;;;;;;48.00;25.57;;;6.70;99.90;;;;;;5044029;28;20220;-70
2022/12/21 07:40:49;;;;;;;48.17;25.83;;;6.80;99.90;;;;;;5040796;28;20744;-70
2022/12/21 07:43:15;;;;;;;44.07;25.17;;;6.70;99.90;;;;;;5046668;28;20337;-70
2022/12/21 07:45:41;;;;;;;44.63;24.70;;;6.80;99.90;;;;;;5043509;28;20219;-71
2022/12/21 07:48:06;;;;;;;46.23;25.33;;;6.70;99.90;;;;;;5040147;28;20280;-71
2022/12/21 07:50:32;;;;;;;48.60;25.27;;;6.70;99.90;;;;;;5044422;28;20694;-71
2022/12/21 07:52:58;;;;;;;44.57;23.73;;;6.80;99.90;;;;;;5038929;28;20208;-70
2022/12/21 07:55:25;;;;;;;44.10;24.50;;;6.80;99.90;;;;;;5044427;28;20207;-72
2022/12/21 07:57:51;;;;;;;45.73;25.30;;;6.80;99.90;;;;;;5057427;28;20218;-72
2022/12/21 08:00:17;;;;;;;42.80;25.37;;;6.80;99.90;;;;;;5042440;28;20203;-71
2022/12/21 08:02:43;;;;;;;44.97;24.83;;;6.80;99.90;;;;;;5050799;28;20231;-71
2022/12/21 08:05:09;;;;;;;46.57;25.80;;;6.90;99.90;;;;;;5041471;28;20208;-70
2022/12/21 08:07:35;;;;;;;47.27;24.47;;;6.90;99.90;;;;;;5043281;28;20301;-71
2022/12/21 08:10:00;;;;;;;49.30;25.73;;;6.90;99.90;;;;;;5038632;28;20207;-71
2022/12/21 08:12:26;;;;;;;40.30;23.77;;;6.90;99.90;;;;;;5040169;28;20682;-69
2022/12/21 08:14:52;;;;;;;47.03;25.07;;;6.90;99.90;;;;;;5041455;28;20163;-72
2022/12/21 08:17:17;;;;;;;47.47;23.30;;;6.90;99.90;;;;;;5045808;28;20588;-71
2022/12/21 08:19:43;;;;;;;47.97;23.87;;;6.90;99.90;;;;;;5041565;28;20218;-71
2022/12/21 08:22:09;;;;;;;42.23;25.27;;;6.90;99.90;;;;;;5040496;28;20220;-69
2022/12/21 08:24:35;;;;;;;48.50;25.83;;;6.90;99.90;;;;;;5041534;28;20211;-71
2022/12/21 08:27:01;;;;;;;47.10;24.47;;;7.00;99.90;;;;;;5039691;28;20311;-70
2022/12/21 08:29:27;;;;;;;45.33;24.70;;;7.00;99.90;;;;;;5039350;28;20295;-71
2022/12/21 08:31:52;;;;;;;42.77;24.83;;;7.00;99.90;;;;;;5058763;28;20284;-72
2022/12/21 08:34:18;;;;;;;43.40;24.93;;;7.00;99.90;;;;;;5040418;28;20211;-73
2022/12/21 08:36:43;;;;;;;43.13;24.47;;;7.00;99.90;;;;;;5041593;28;20211;-69
2022/12/21 08:39:09;;;;;;;45.87;25.20;;;7.00;99.90;;;;;;5039646;28;20176;-70
2022/12/21 08:41:36;;;;;;;44.13;24.80;;;7.00;99.90;;;;;;5043873;28;20721;-71
2022/12/21 08:44:02;;;;;;;42.53;24.17;;;7.10;99.90;;;;;;5039408;28;20205;-70
2022/12/21 08:46:27;;;;;;;44.33;25.63;;;7.10;99.90;;;;;;5050679;28;20208;-71
2022/12/21 08:48:53;;;;;;;44.33;23.77;;;7.00;99.90;;;;;;5044999;28;20211;-71
2022/12/21 08:51:19;;;;;;;37.70;22.77;;;7.10;99.90;;;;;;5050572;28;20302;-73
2022/12/21 08:53:45;;;;;;;39.40;22.37;;;7.10;99.90;;;;;;5052422;28;20184;-72
2022/12/21 08:56:10;;;;;;;43.60;24.20;;;7.10;99.90;;;;;;5050347;28;20246;-72
2022/12/21 08:58:36;;;;;;;42.40;24.50;;;7.10;99.90;;;;;;5058759;28;20251;-70
2022/12/21 09:01:02;;;;;;;42.37;23.33;;;7.20;99.90;;;;;;5052388;28;20227;-72
2022/12/21 09:03:27;;;;;;;43.97;23.77;;;7.20;99.90;;;;;;5054315;28;20597;-71
2022/12/21 09:05:58;;;;;;;41.87;22.73;;;7.20;99.90;;;;;;5033400;28;20330;-71
2022/12/21 09:08:25;;;;;;;38.90;22.53;;;7.30;99.90;;;;;;5041265;28;20212;-71
2022/12/21 09:10:59;;;;;;;36.47;22.63;;;7.20;99.90;;;;;;5052527;28;20208;-73
2022/12/21 09:13:25;;;;;;;37.70;22.63;;;7.30;99.90;;;;;;5054942;28;20234;-73
2022/12/21 09:15:51;;;;;;;42.37;24.40;;;7.30;99.90;;;;;;5056625;28;20226;-74
2022/12/21 09:18:20;;;;;;;39.07;21.33;;;7.30;99.90;;;;;;5045135;28;20183;-76
2022/12/21 09:20:45;;;;;;;38.53;23.57;;;7.30;99.90;;;;;;5040639;28;20254;-71
2022/12/21 09:23:11;;;;;;;38.93;23.30;;;7.30;99.90;;;;;;5040421;28;20223;-73
2022/12/21 09:25:37;;;;;;;41.47;23.97;;;7.40;99.90;;;;;;5041913;28;20240;-71
2022/12/21 09:28:03;;;;;;;36.20;22.30;;;7.40;99.90;;;;;;5034428;28;20230;-71
2022/12/21 09:30:29;;;;;;;42.00;23.97;;;7.40;99.90;;;;;;5041505;28;20234;-72
2022/12/21 09:32:55;;;;;;;45.07;24.37;;;7.40;99.90;;;;;;5040302;28;20208;-71
2022/12/21 09:35:21;;;;;;;47.57;23.10;;;7.40;99.90;;;;;;5042390;28;20725;-70
2022/12/21 09:37:46;;;;;;;35.87;21.30;;;7.40;99.90;;;;;;5042410;28;20200;-72
2022/12/21 09:40:15;;;;;;;40.53;22.73;;;7.40;99.90;;;;;;5039222;28;20239;-71
2022/12/21 09:43:08;;;;;;;35.33;21.67;;;7.50;99.90;;;;;;5038762;28;20231;-73
2022/12/21 09:46:05;;;;;;;39.83;22.13;;;7.50;99.90;;;;;;5041247;28;20727;-72
2022/12/21 09:48:38;;;;;;;40.53;23.13;;;7.50;99.90;;;;;;5047862;28;20255;-72
2022/12/21 09:51:04;;;;;;;39.00;21.97;;;7.50;99.90;;;;;;5033789;28;20630;-72
2022/12/21 09:53:39;;;;;;;39.30;21.17;;;7.50;99.90;;;;;;5036919;28;20259;-71
2022/12/21 09:56:06;;;;;;;41.97;22.93;;;7.50;99.90;;;;;;5044489;28;20208;-72
2022/12/21 09:58:37;;;;;;;41.07;23.43;;;7.50;99.90;;;;;;5049150;28;20259;-72
2022/12/21 10:01:18;;;;;;;36.57;22.80;;;7.50;99.90;;;;;;5042106;28;20223;-72
2022/12/21 10:04:09;;;;;;;36.17;21.97;;;7.50;99.90;;;;;;5037200;28;20238;-72
2022/12/21 10:06:57;;;;;;;41.63;22.27;;;7.50;99.90;;;;;;5050556;28;20722;-72
2022/12/21 10:09:44;;;;;;;40.23;21.67;;;7.50;99.90;;;;;;5040862;28;20168;-72
2022/12/21 10:12:18;;;;;;;36.90;22.03;;;7.60;99.90;;;;;;5043628;28;20242;-70
2022/12/21 10:14:58;;;;;;;38.17;22.07;;;7.60;99.90;;;;;;5034902;28;20276;-71
2022/12/21 10:17:24;;;;;;;37.57;21.93;;;7.60;99.90;;;;;;5044159;28;20215;-71
2022/12/21 10:19:59;;;;;;;38.07;22.47;;;7.60;99.90;;;;;;5043115;28;20211;-72
2022/12/21 10:22:31;;;;;;;42.20;21.27;;;7.60;99.90;;;;;;5044587;28;20728;-72
2022/12/21 10:25:01;;;;;;;37.57;21.80;;;7.60;99.90;;;;;;5039955;28;20238;-69
2022/12/21 10:27:35;;;;;;;34.20;21.30;;;7.60;99.90;;;;;;5045004;28;20181;-72
2022/12/21 10:30:01;;;;;;;38.23;22.70;;;7.60;99.90;;;;;;5046075;28;20198;-72
2022/12/21 10:32:33;;;;;;;37.67;22.97;;;7.60;99.90;;;;;;5047941;28;20697;-71
2022/12/21 10:35:17;;;;;;;38.50;22.33;;;7.60;99.90;;;;;;5040833;28;20203;-71
2022/12/21 10:37:52;;;;;;;35.60;21.90;;;7.70;99.90;;;;;;5039705;28;20273;-72
2022/12/21 10:40:21;;;;;;;37.37;22.27;;;7.70;99.90;;;;;;5039896;28;20269;-72
2022/12/21 10:42:50;;;;;;;33.47;21.60;;;7.70;99.90;;;;;;5043185;28;20208;-72
2022/12/21 10:45:19;;;;;;;36.47;23.20;;;7.70;99.90;;;;;;5036751;28;20207;-72
2022/12/21 10:47:45;;;;;;;38.20;22.27;;;7.70;99.90;;;;;;5026337;28;20646;-72
2022/12/21 10:50:21;;;;;;;34.70;21.77;;;7.70;99.90;;;;;;5040596;28;20277;-72
2022/12/21 10:52:52;;;;;;;37.60;23.47;;;7.70;99.90;;;;;;5042666;28;20196;-71
2022/12/21 10:55:18;;;;;;;35.30;21.13;;;7.80;99.90;;;;;;5041153;28;20679;-71
2022/12/21 10:57:50;;;;;;;37.23;21.83;;;7.80;99.90;;;;;;5044433;28;20208;-72
2022/12/21 11:00:31;;;;;;;41.53;21.97;;;7.80;99.90;;;;;;5044848;28;20200;-71
2022/12/21 11:02:59;;;;;;;41.67;23.33;;;7.90;99.90;;;;;;5039251;28;21115;-72
2022/12/21 11:05:34;;;;;;;38.93;21.53;;;8.00;99.90;;;;;;5024139;28;20212;-73
2022/12/21 11:08:21;;;;;;;42.20;22.03;;;8.00;99.90;;;;;;5040187;28;20756;-70
2022/12/21 11:10:50;;;;;;;38.13;21.20;;;8.00;99.90;;;;;;5040454;28;20663;-71
2022/12/21 11:13:16;;;;;;;36.00;21.57;;;8.00;99.90;;;;;;5039635;28;20287;-71
2022/12/21 11:15:54;;;;;;;40.13;21.97;;;8.00;99.90;;;;;;5043242;28;20242;-70
2022/12/21 11:18:40;;;;;;;40.87;22.20;;;8.00;99.90;;;;;;5039398;28;20550;-71
2022/12/21 11:21:39;;;;;;;34.27;21.53;;;8.00;99.90;;;;;;5042654;28;20235;-73
2022/12/21 11:24:16;;;;;;;36.40;20.27;;;8.10;99.90;;;;;;5031065;28;20209;-71
2022/12/21 11:26:45;;;;;;;33.27;21.33;;;8.10;99.90;;;;;;5042617;28;20208;-72
2022/12/21 11:29:22;;;;;;;35.87;21.27;;;8.10;99.90;;;;;;5040274;28;20691;-71
2022/12/21 11:31:49;;;;;;;31.67;20.53;;;8.10;99.90;;;;;;5040731;28;20323;-72
2022/12/21 11:34:23;;;;;;;32.50;20.53;;;8.10;99.90;;;;;;5041359;28;20295;-71
2022/12/21 11:37:00;;;;;;;34.00;21.60;;;8.10;99.90;;;;;;5040193;28;20261;-72
2022/12/21 11:39:26;;;;;;;38.20;21.63;;;8.10;99.90;;;;;;5017383;28;20274;-72
2022/12/21 11:41:53;;;;;;;34.17;21.60;;;8.10;99.90;;;;;;5018537;28;20216;-75
2022/12/21 11:44:46;;;;;;;30.97;20.53;;;8.10;99.90;;;;;;5040645;28;20650;-71
2022/12/21 11:47:32;;;;;;;34.07;20.37;;;8.10;99.90;;;;;;5020691;28;20208;-71
2022/12/21 11:50:13;;;;;;;33.80;21.33;;;8.20;99.90;;;;;;5039768;28;20250;-71
2022/12/21 11:52:44;;;;;;;33.17;20.77;;;8.20;99.90;;;;;;5041154;28;20207;-71
2022/12/21 11:55:25;;;;;;;35.90;21.67;;;8.20;99.90;;;;;;5039163;28;20267;-71
2022/12/21 11:58:28;;;;;;;31.93;20.70;;;8.20;99.90;;;;;;5042465;28;20302;-71
2022/12/21 12:01:12;;;;;;;30.87;20.33;;;8.30;99.90;;;;;;5023528;28;20220;-72
2022/12/21 12:03:44;;;;;;;34.50;20.47;;;8.20;99.90;;;;;;5047185;28;20589;-71
2022/12/21 12:06:30;;;;;;;34.23;21.50;;;8.20;99.90;;;;;;5041873;28;20185;-71
2022/12/21 12:09:07;;;;;;;34.80;20.50;;;8.20;99.90;;;;;;5031437;28;20191;-71
2022/12/21 12:12:04;;;;;;;33.00;21.60;;;8.30;99.90;;;;;;5041315;28;20257;-72
2022/12/21 12:14:44;;;;;;;36.63;21.30;;;8.20;99.90;;;;;;5039810;28;20215;-71
2022/12/21 12:17:28;;;;;;;31.70;19.30;;;8.20;99.90;;;;;;5038773;28;20235;-71
2022/12/21 12:20:21;;;;;;;32.10;20.53;;;8.20;99.90;;;;;;5037913;28;20270;-70
2022/12/21 12:23:14;;;;;;;34.60;22.30;;;8.20;99.90;;;;;;5038545;28;20215;-71
2022/12/21 12:25:49;;;;;;;32.17;21.53;;;8.20;99.90;;;;;;5037957;28;20204;-71
2022/12/21 12:28:32;;;;;;;32.03;20.63;;;8.20;99.90;;;;;;5025068;28;20215;-71
2022/12/21 12:31:13;;;;;;;33.70;21.20;;;8.30;99.90;;;;;;5038253;28;20212;-71
2022/12/21 12:34:03;;;;;;;29.93;20.80;;;8.30;99.90;;;;;;5041959;28;20238;-71
2022/12/21 12:36:56;;;;;;;35.27;21.40;;;8.20;99.90;;;;;;5046236;28;20269;-71
2022/12/21 12:39:42;;;;;;;35.60;21.93;;;8.20;99.90;;;;;;5040338;28;20198;-70
2022/12/21 12:42:17;;;;;;;34.23;21.30;;;8.20;99.90;;;;;;5073190;23;20818;-71
2022/12/21 12:44:57;;;;;;;35.27;21.40;;;8.20;99.90;;;;;;5086093;28;20613;-71
2022/12/21 12:47:25;;;;;;;35.50;22.97;;;8.20;99.90;;;;;;5089535;28;21027;-71
2022/12/21 12:50:17;;;;;;;33.17;22.73;;;8.20;99.90;;;;;;5089565;28;20198;-71
2022/12/21 12:53:03;;;;;;;32.93;21.47;;;8.30;99.90;;;;;;5066567;28;20206;-71
2022/12/21 12:55:41;;;;;;;36.03;21.63;;;8.30;99.90;;;;;;5087500;28;20202;-70
2022/12/21 12:58:32;;;;;;;38.20;22.83;;;8.30;99.90;;;;;;5088927;28;20210;-70
2022/12/21 13:01:14;;;;;;;37.27;21.90;;;8.30;99.90;;;;;;5086222;28;20258;-69
2022/12/21 13:04:18;;;;;;;35.47;22.23;;;8.30;99.90;;;;;;5090068;28;20206;-71
2022/12/21 13:06:55;;;;;;;33.67;20.13;;;8.30;99.90;;;;;;5087800;28;20290;-71
2022/12/21 13:09:45;;;;;;;32.23;20.33;;;8.30;99.90;;;;;;5085632;28;20537;-72
2022/12/21 13:12:14;;;;;;;38.17;22.40;;;8.30;99.90;;;;;;5066373;28;20692;-71
2022/12/21 13:14:51;;;;;;;33.10;21.23;;;8.30;99.90;;;;;;5090588;28;20174;-71